Time;durP1;ratioP1;P1;durP2;ratioP2;P2;SDS_P1;SDS_P2;PMS_P1;PMS_P2;Temp;Humidity;BMP_temperature;BMP_pressure;BME280_temperature;BME280_humidity;BME280_pressure;Samples;Min_cycle;Max_cycle;Signal;HPM_P1;HPM_P2
2023/03/25 00:00:21;;;;;;;;;;;;;;;20.01;49.76;99795.47;4965191;28;2827;-60
2023/03/25 00:02:48;;;;;;;;;;;;;;;20.00;49.74;99800.50;4959364;28;2778;-60
2023/03/25 00:05:15;;;;;;;;;;;;;;;20.00;49.90;99806.25;4961696;28;2874;-60
2023/03/25 00:07:42;;;;;;;;;;;;;;;19.99;49.79;99798.28;4958723;28;2663;-61
2023/03/25 00:10:08;;;;;;;;;;;;;;;19.99;49.77;99801.16;4960525;28;2790;-60
2023/03/25 00:12:35;;;;;;;;;;;;;;;19.99;49.90;99801.16;4964242;28;2806;-60
2023/03/25 00:15:01;;;;;;;;;;;;;;;19.98;49.83;99803.31;4964531;28;2797;-60
2023/03/25 00:17:29;;;;;;;;;;;;;;;19.98;49.83;99802.59;4959475;28;2722;-61
2023/03/25 00:19:56;;;;;;;;;;;;;;;19.98;49.92;99794.69;4959934;28;2711;-60
2023/03/25 00:22:23;;;;;;;;;;;;;;;19.97;49.77;99790.31;4959632;28;2686;-61
2023/03/25 00:24:49;;;;;;;;;;;;;;;19.97;49.78;99787.47;4963842;28;2592;-60
2023/03/25 00:27:19;;;;;;;;;;;;;;;19.96;49.80;99791.75;4962427;28;2721;-60
2023/03/25 00:29:45;;;;;;;;;;;;;;;19.97;49.73;99793.19;4962731;28;2723;-60
2023/03/25 00:32:12;;;;;;;;;;;;;;;19.95;49.77;99798.16;4948014;28;2187;-60
2023/03/25 00:34:45;;;;;;;;;;;;;;;19.97;49.79;99796.06;4959651;28;2858;-60
2023/03/25 00:37:16;;;;;;;;;;;;;;;19.97;49.75;99787.47;4938534;28;2930;-60
2023/03/25 00:39:43;;;;;;;;;;;;;;;19.97;49.80;99792.47;4949958;28;2797;-60
2023/03/25 00:42:12;;;;;;;;;;;;;;;19.96;49.90;99794.63;4960307;28;2822;-60
2023/03/25 00:44:39;;;;;;;;;;;;;;;19.98;49.75;99797.56;4962446;28;2892;-60
2023/03/25 00:47:05;;;;;;;;;;;;;;;19.96;49.90;99803.25;4962698;28;2839;-60
2023/03/25 00:49:32;;;;;;;;;;;;;;;19.96;50.07;99811.88;4962564;28;2830;-60
2023/03/25 00:51:58;;;;;;;;;;;;;;;19.97;50.08;99812.59;4962464;28;2724;-60
2023/03/25 00:54:24;;;;;;;;;;;;;;;19.94;50.14;99808.91;4966484;28;1682;-61
2023/03/25 00:56:51;;;;;;;;;;;;;;;19.95;50.21;99798.16;4967619;28;2104;-60
2023/03/25 00:59:17;;;;;;;;;;;;;;;19.93;50.22;99813.22;4965695;28;2882;-61
2023/03/25 01:01:47;;;;;;;;;;;;;;;19.94;50.26;99814.66;4965126;28;2443;-60
2023/03/25 01:04:15;;;;;;;;;;;;;;;19.93;50.13;99816.09;4965624;28;2585;-60
2023/03/25 01:06:44;;;;;;;;;;;;;;;19.93;50.10;99803.84;4966282;28;1729;-61
2023/03/25 01:09:15;;;;;;;;;;;;;;;19.94;50.14;99813.94;4955982;28;2619;-60
2023/03/25 01:11:41;;;;;;;;;;;;;;;19.92;50.20;99811.72;4963061;28;3167;-61
2023/03/25 01:14:10;;;;;;;;;;;;;;;19.90;50.25;99808.78;4963149;28;2730;-60
2023/03/25 01:16:36;;;;;;;;;;;;;;;19.91;50.15;99801.66;4964147;28;2574;-61
2023/03/25 01:19:03;;;;;;;;;;;;;;;19.91;50.17;99803.78;4964565;28;3091;-60
2023/03/25 01:21:32;;;;;;;;;;;;;;;19.91;50.11;99798.78;4959539;28;2822;-61
2023/03/25 01:23:59;;;;;;;;;;;;;;;19.90;50.26;99797.28;4962966;28;2501;-61
2023/03/25 01:26:25;;;;;;;;;;;;;;;19.90;50.14;99793.69;4946234;28;2787;-61
2023/03/25 01:28:52;;;;;;;;;;;;;;;19.88;50.11;99786.50;4962419;28;2753;-61
2023/03/25 01:31:21;;;;;;;;;;;;;;;19.90;50.20;99790.81;4962486;28;2664;-61
2023/03/25 01:33:48;;;;;;;;;;;;;;;19.88;50.21;99782.88;4955054;28;2800;-61
2023/03/25 01:36:14;;;;;;;;;;;;;;;19.89;50.23;99778.59;4965434;28;2493;-61
2023/03/25 01:38:41;;;;;;;;;;;;;;;19.87;50.05;99767.78;4965112;28;2772;-60
2023/03/25 01:41:08;;;;;;;;;;;;;;;19.88;50.24;99765.63;4942177;28;2833;-61
2023/03/25 01:43:34;;;;;;;;;;;;;;;19.88;50.15;99765.63;4962639;28;2778;-60
2023/03/25 01:46:00;;;;;;;;;;;;;;;19.87;50.16;99759.16;4962626;28;2620;-61
2023/03/25 01:48:31;;;;;;;;;;;;;;;19.87;50.18;99764.16;4958545;28;3155;-61
2023/03/25 01:50:59;;;;;;;;;;;;;;;19.87;50.20;99761.31;4944242;28;3086;-61
2023/03/25 01:53:26;;;;;;;;;;;;;;;19.86;50.00;99760.56;4949874;28;3325;-61
2023/03/25 01:55:53;;;;;;;;;;;;;;;19.87;50.11;99758.44;4945326;28;3126;-61
2023/03/25 01:58:20;;;;;;;;;;;;;;;19.86;50.01;99754.09;4962370;28;3141;-61
2023/03/25 02:00:46;;;;;;;;;;;;;;;19.86;50.05;99751.22;4960077;28;3172;-61
2023/03/25 02:03:13;;;;;;;;;;;;;;;19.85;50.09;99761.22;4957931;28;3072;-61
2023/03/25 02:05:47;;;;;;;;;;;;;;;19.84;50.16;99748.28;4943866;28;3070;-60
2023/03/25 02:08:14;;;;;;;;;;;;;;;19.84;50.12;99743.28;4961536;28;2707;-61
2023/03/25 02:10:43;;;;;;;;;;;;;;;19.84;50.23;99742.53;4939581;28;3317;-60
2023/03/25 02:13:10;;;;;;;;;;;;;;;19.84;50.17;99748.28;4960719;28;2888;-61
2023/03/25 02:15:40;;;;;;;;;;;;;;;19.82;50.14;99733.84;4957072;28;3249;-61
2023/03/25 02:18:25;;;;;;;;;;;;;;;19.83;50.04;99741.06;4954765;28;3441;-61
2023/03/25 02:21:04;;;;;;;;;;;;;;;19.83;50.11;99738.19;4940989;28;3111;-60
2023/03/25 02:23:33;;;;;;;;;;;;;;;19.82;50.04;99739.59;4949869;28;2577;-61
2023/03/25 02:41:54;;;;;;;;;;;;;;;19.80;50.12;99714.41;4939575;28;3517;-62
2023/03/25 02:44:35;;;;;;;;;;;;;;;19.79;50.08;99712.22;4919387;28;2867;-61
2023/03/25 02:47:03;;;;;;;;;;;;;;;19.78;50.07;99699.25;4944808;28;2732;-62
2023/03/25 02:49:30;;;;;;;;;;;;;;;19.79;50.07;99700.72;4942163;28;3263;-62
2023/03/25 02:52:16;;;;;;;;;;;;;;;19.77;50.13;99706.41;4952218;28;3040;-61
2023/03/25 02:54:43;;;;;;;;;;;;;;;19.78;50.10;99705.00;4958791;28;2690;-62
2023/03/25 02:57:11;;;;;;;;;;;;;;;19.78;50.08;99705.00;4957886;28;2935;-62
2023/03/25 02:59:37;;;;;;;;;;;;;;;19.77;50.01;99706.41;4936801;28;2800;-62
2023/03/25 03:02:06;;;;;;;;;;;;;;;19.77;49.97;99710.03;4917353;28;3133;-62
2023/03/25 03:04:53;;;;;;;;;;;;;;;19.76;50.02;99713.56;4907300;28;3285;-60
2023/03/25 03:07:32;;;;;;;;;;;;;;;19.77;49.95;99718.63;4957891;28;3180;-61
2023/03/25 03:10:05;;;;;;;;;;;;;;;19.75;50.00;99715.69;4959474;28;2882;-60
2023/03/25 03:12:35;;;;;;;;;;;;;;;19.75;49.97;99718.56;4942028;28;3104;-60
2023/03/25 03:15:13;;;;;;;;;;;;;;;19.75;50.06;99707.09;4937498;28;3213;-60
2023/03/25 03:17:42;;;;;;;;;;;;;;;19.74;50.05;99717.09;4948129;28;2774;-61
2023/03/25 03:20:19;;;;;;;;;;;;;;;19.74;50.01;99717.09;4937890;28;3215;-61
2023/03/25 03:22:51;;;;;;;;;;;;;;;19.74;49.97;99722.09;4960245;28;3002;-61
2023/03/25 03:25:21;;;;;;;;;;;;;;;19.75;49.95;99717.84;4947236;28;2611;-61
2023/03/25 03:27:52;;;;;;;;;;;;;;;19.73;50.07;99726.41;4957819;28;3526;-60
2023/03/25 03:30:31;;;;;;;;;;;;;;;19.73;50.07;99729.28;4957955;28;3100;-60
2023/03/25 03:33:03;;;;;;;;;;;;;;;19.72;50.03;99719.91;4961014;28;3550;-61
2023/03/25 03:35:33;;;;;;;;;;;;;;;19.70;50.08;99721.97;4959963;28;3133;-60
2023/03/25 03:38:00;;;;;;;;;;;;;;;19.73;50.08;99720.66;4956257;28;2714;-60
2023/03/25 03:40:27;;;;;;;;;;;;;;;19.73;50.07;99721.38;4938290;28;3292;-60
2023/03/25 03:42:53;;;;;;;;;;;;;;;19.74;49.96;99722.09;4940766;28;3329;-60
2023/03/25 03:45:24;;;;;;;;;;;;;;;19.74;49.93;99716.38;4961854;28;2778;-60
2023/03/25 03:47:51;;;;;;;;;;;;;;;19.76;49.98;99717.16;4941720;28;3129;-60
2023/03/25 03:50:30;;;;;;;;;;;;;;;19.80;49.87;99719.44;4963360;28;2629;-61
2023/03/25 03:52:58;;;;;;;;;;;;;;;19.82;49.87;99708.00;4957277;28;2763;-60
2023/03/25 03:55:28;;;;;;;;;;;;;;;19.85;50.20;99709.53;4964060;28;2706;-61
2023/03/25 03:57:55;;;;;;;;;;;;;;;19.83;50.17;99695.09;4958702;28;3145;-60
2023/03/25 04:00:26;;;;;;;;;;;;;;;19.84;50.31;99703.06;4945581;28;3091;-60
2023/03/25 04:02:54;;;;;;;;;;;;;;;19.85;50.36;99692.28;4964972;28;3016;-60
2023/03/25 04:05:21;;;;;;;;;;;;;;;19.84;50.37;99703.06;4945485;28;3140;-60
2023/03/25 04:07:53;;;;;;;;;;;;;;;19.85;50.39;99703.78;4947331;28;2876;-61
2023/03/25 04:10:28;;;;;;;;;;;;;;;19.85;50.55;99698.03;4962860;28;2892;-61
2023/03/25 04:12:54;;;;;;;;;;;;;;;19.86;50.24;99708.13;4941824;28;3112;-61
2023/03/25 04:15:21;;;;;;;;;;;;;;;19.88;50.19;99705.28;4961888;28;2846;-60
2023/03/25 04:17:47;;;;;;;;;;;;;;;19.88;50.29;99714.66;4944512;28;3015;-61
2023/03/25 04:20:14;;;;;;;;;;;;;;;19.89;50.29;99706.78;4965983;28;3080;-60
2023/03/25 04:22:44;;;;;;;;;;;;;;;19.89;50.15;99709.66;4961283;28;2762;-60
2023/03/25 04:25:12;;;;;;;;;;;;;;;19.91;50.08;99711.88;4961841;28;3187;-60
2023/03/25 04:27:39;;;;;;;;;;;;;;;19.92;50.17;99698.94;4959127;28;2938;-60
2023/03/25 04:30:05;;;;;;;;;;;;;;;19.91;50.30;99701.09;4960712;28;2603;-60
2023/03/25 04:32:32;;;;;;;;;;;;;;;19.91;50.41;99706.84;4959104;28;2758;-60
2023/03/25 04:34:58;;;;;;;;;;;;;;;19.91;50.26;99706.84;4963598;28;2683;-60
2023/03/25 04:37:25;;;;;;;;;;;;;;;19.90;50.50;99708.25;4960377;28;3240;-60
2023/03/25 04:39:58;;;;;;;;;;;;;;;19.91;50.39;99714.72;4956497;28;3038;-60
2023/03/25 04:42:31;;;;;;;;;;;;;;;19.91;50.38;99711.88;4963022;28;2733;-61
2023/03/25 04:44:58;;;;;;;;;;;;;;;19.89;50.48;99698.16;4961135;28;2984;-60
2023/03/25 04:47:24;;;;;;;;;;;;;;;19.89;50.21;99709.66;4965044;28;2735;-60
2023/03/25 04:49:51;;;;;;;;;;;;;;;19.90;50.16;99705.38;4958303;28;2949;-60
2023/03/25 04:52:17;;;;;;;;;;;;;;;19.92;50.28;99702.56;4947999;28;2821;-60
2023/03/25 04:54:43;;;;;;;;;;;;;;;19.92;50.39;99696.81;4962284;28;3049;-60
2023/03/25 04:57:10;;;;;;;;;;;;;;;19.93;50.46;99704.03;4963636;28;2795;-60
2023/03/25 04:59:36;;;;;;;;;;;;;;;19.94;50.57;99705.50;4962076;28;3064;-63
2023/03/25 05:02:04;;;;;;;;;;;;;;;19.95;50.25;99712.72;4964516;28;2703;-60
2023/03/25 05:04:31;;;;;;;;;;;;;;;19.95;50.28;99709.09;4962342;28;2655;-61
2023/03/25 05:06:57;;;;;;;;;;;;;;;19.94;50.41;99705.50;4965671;28;2635;-61
2023/03/25 05:09:23;;;;;;;;;;;;;;;19.94;50.56;99705.50;4960326;28;3121;-60
2023/03/25 05:11:50;;;;;;;;;;;;;;;19.93;50.50;99715.53;4961493;28;3377;-60
2023/03/25 05:14:17;;;;;;;;;;;;;;;19.94;50.49;99716.25;4964111;28;2552;-61
2023/03/25 05:16:44;;;;;;;;;;;;;;;19.94;50.62;99710.50;4963034;28;3054;-60
2023/03/25 05:19:10;;;;;;;;;;;;;;;19.93;50.59;99709.78;4958758;28;3274;-61
2023/03/25 05:21:37;;;;;;;;;;;;;;;19.92;50.74;99702.56;4959127;28;2867;-61
2023/03/25 05:24:07;;;;;;;;;;;;;;;19.90;50.61;99696.75;4956661;28;2820;-61
2023/03/25 05:26:33;;;;;;;;;;;;;;;19.91;50.60;99701.09;4951175;28;2745;-60
2023/03/25 05:29:00;;;;;;;;;;;;;;;19.91;50.51;99712.59;4959725;28;2745;-61
2023/03/25 05:31:27;;;;;;;;;;;;;;;19.91;50.61;99712.59;4952134;28;2974;-61
2023/03/25 05:33:53;;;;;;;;;;;;;;;19.91;50.41;99712.59;4963034;28;3235;-60
2023/03/25 05:36:20;;;;;;;;;;;;;;;19.93;50.52;99715.53;4962153;28;2854;-60
2023/03/25 05:38:47;;;;;;;;;;;;;;;19.93;50.53;99721.28;4962796;28;2807;-60
2023/03/25 05:41:15;;;;;;;;;;;;;;;19.96;50.41;99724.94;4958161;28;3027;-60
2023/03/25 05:43:46;;;;;;;;;;;;;;;19.96;50.36;99730.69;4960573;28;2853;-61
2023/03/25 05:46:13;;;;;;;;;;;;;;;19.96;50.54;99719.91;4956655;28;2804;-60
2023/03/25 05:48:40;;;;;;;;;;;;;;;19.86;50.26;99728.25;4956909;28;2892;-60
2023/03/25 05:51:12;;;;;;;;;;;;;;;19.91;50.21;99724.09;4954290;28;3026;-60
2023/03/25 05:53:38;;;;;;;;;;;;;;;19.95;50.15;99729.19;4959662;28;2695;-60
2023/03/25 05:56:05;;;;;;;;;;;;;;;19.97;50.20;99737.88;4954109;28;3135;-61
2023/03/25 05:58:31;;;;;;;;;;;;;;;19.97;50.43;99737.88;4963525;28;2420;-60
2023/03/25 06:01:01;;;;;;;;;;;;;;;19.97;50.37;99732.88;4960577;28;2981;-60
2023/03/25 06:03:27;;;;;;;;;;;;;;;19.96;50.44;99737.16;4963561;28;2718;-60
2023/03/25 06:05:55;;;;;;;;;;;;;;;19.97;50.42;99750.09;4956039;28;3052;-60
2023/03/25 06:08:25;;;;;;;;;;;;;;;19.96;50.49;99742.91;4960487;28;2860;-60
2023/03/25 06:10:57;;;;;;;;;;;;;;;19.97;50.46;99738.63;4949478;28;3266;-60
2023/03/25 06:13:23;;;;;;;;;;;;;;;19.97;50.51;99744.34;4938802;28;2624;-60
2023/03/25 06:15:54;;;;;;;;;;;;;;;19.98;50.38;99745.13;4957163;28;3135;-60
2023/03/25 06:18:24;;;;;;;;;;;;;;;19.99;50.40;99747.28;4956131;28;3482;-60
2023/03/25 06:20:52;;;;;;;;;;;;;;;20.00;50.20;99743.03;4958069;28;2815;-61
2023/03/25 06:23:21;;;;;;;;;;;;;;;20.01;50.29;99749.50;4956419;28;3395;-60
2023/03/25 06:25:48;;;;;;;;;;;;;;;20.01;50.08;99750.22;4962762;28;2706;-60
2023/03/25 06:28:17;;;;;;;;;;;;;;;20.00;50.32;99751.66;4957427;28;2705;-60
2023/03/25 06:30:46;;;;;;;;;;;;;;;20.00;50.36;99748.06;4960664;28;3065;-60
2023/03/25 06:33:13;;;;;;;;;;;;;;;20.00;50.25;99743.03;4954618;28;2765;-60
2023/03/25 06:35:59;;;;;;;;;;;;;;;20.01;50.29;99746.63;4954574;28;2865;-60
2023/03/25 06:38:28;;;;;;;;;;;;;;;20.00;50.44;99748.78;4953468;28;3216;-60
2023/03/25 06:41:06;;;;;;;;;;;;;;;19.99;50.48;99744.41;4944573;28;2562;-61
2023/03/25 06:43:32;;;;;;;;;;;;;;;19.99;50.33;99755.19;4958309;28;2718;-60
2023/03/25 06:46:21;;;;;;;;;;;;;;;20.00;50.39;99743.03;4957534;28;2928;-60
2023/03/25 06:49:07;;;;;;;;;;;;;;;20.00;50.33;99743.03;4963283;28;2740;-60
2023/03/25 06:51:33;;;;;;;;;;;;;;;20.00;50.39;99743.03;4959807;28;3344;-60
2023/03/25 06:54:00;;;;;;;;;;;;;;;20.02;50.30;99745.97;4960164;28;2765;-60
2023/03/25 06:56:26;;;;;;;;;;;;;;;20.03;50.10;99747.41;4955060;28;3064;-60
2023/03/25 06:58:52;;;;;;;;;;;;;;;20.04;50.21;99748.91;4952640;28;3053;-60
2023/03/25 07:01:19;;;;;;;;;;;;;;;20.04;50.20;99748.91;4957610;28;2865;-60
2023/03/25 07:03:45;;;;;;;;;;;;;;;20.05;50.18;99758.97;4953088;28;2813;-60
2023/03/25 07:06:13;;;;;;;;;;;;;;;20.05;50.30;99750.38;4958317;28;2765;-60
2023/03/25 07:08:40;;;;;;;;;;;;;;;20.05;50.16;99744.63;4952504;28;2912;-60
2023/03/25 07:11:06;;;;;;;;;;;;;;;20.06;50.28;99753.97;4959349;28;2722;-60
2023/03/25 07:13:33;;;;;;;;;;;;;;;20.05;50.27;99744.63;4958037;28;2721;-61
2023/03/25 07:15:59;;;;;;;;;;;;;;;20.04;50.30;99748.91;4957527;28;2996;-60
2023/03/25 07:18:25;;;;;;;;;;;;;;;20.04;50.60;99748.91;4944546;28;2879;-60
2023/03/25 07:20:52;;;;;;;;;;;;;;;20.04;50.41;99760.41;4950435;28;2857;-60
2023/03/25 07:23:18;;;;;;;;;;;;;;;20.05;50.50;99761.84;4956901;28;2998;-60
2023/03/25 07:25:44;;;;;;;;;;;;;;;20.04;50.26;99762.53;4960151;28;2749;-61
2023/03/25 07:28:11;;;;;;;;;;;;;;;20.03;50.49;99764.66;4957959;28;2785;-60
2023/03/25 07:30:43;;;;;;;;;;;;;;;20.03;50.45;99764.66;4958301;28;2996;-60
2023/03/25 07:33:09;;;;;;;;;;;;;;;20.02;50.55;99768.19;4957809;28;3041;-60
2023/03/25 07:35:36;;;;;;;;;;;;;;;20.02;50.44;99757.47;4963603;28;3007;-60
2023/03/25 07:38:02;;;;;;;;;;;;;;;20.01;50.53;99767.47;4961458;28;3055;-60
2023/03/25 07:40:29;;;;;;;;;;;;;;;20.00;50.52;99766.03;4963653;28;3043;-61
2023/03/25 07:42:55;;;;;;;;;;;;;;;20.00;50.54;99771.75;4957069;28;2862;-60
2023/03/25 07:45:42;;;;;;;;;;;;;;;20.00;50.58;99771.75;4952916;28;2636;-60
2023/03/25 07:48:13;;;;;;;;;;;;;;;19.99;50.60;99775.31;4962092;28;2770;-60
2023/03/25 07:50:39;;;;;;;;;;;;;;;19.98;50.58;99768.81;4960400;28;3092;-60
2023/03/25 07:53:06;;;;;;;;;;;;;;;19.98;50.63;99762.34;4963642;28;2841;-61
2023/03/25 07:55:32;;;;;;;;;;;;;;;19.97;50.54;99778.84;4964567;28;2814;-60
2023/03/25 07:58:00;;;;;;;;;;;;;;;19.97;50.53;99775.97;4965000;28;2979;-60
2023/03/25 08:00:27;;;;;;;;;;;;;;;19.96;50.51;99771.63;4954514;28;2883;-60
2023/03/25 08:02:54;;;;;;;;;;;;;;;19.96;50.32;99770.91;4961700;28;2758;-60
2023/03/25 08:05:20;;;;;;;;;;;;;;;19.96;50.42;99771.63;4953885;28;3021;-60
2023/03/25 08:07:47;;;;;;;;;;;;;;;19.95;50.47;99787.41;4958781;28;3175;-60
2023/03/25 08:10:14;;;;;;;;;;;;;;;19.96;50.33;99782.41;4953435;28;3129;-61
2023/03/25 08:12:41;;;;;;;;;;;;;;;19.96;50.22;99776.66;4959625;28;3125;-62
2023/03/25 08:15:07;;;;;;;;;;;;;;;20.04;50.31;99776.88;4962734;28;2649;-69
2023/03/25 08:17:34;;;;;;;;;;;;;;;20.06;50.38;99771.19;4959948;28;2702;-65
2023/03/25 08:20:01;;;;;;;;;;;;;;;20.05;50.44;99773.34;4961925;28;2767;-65
2023/03/25 08:22:27;;;;;;;;;;;;;;;20.07;50.35;99781.31;4934775;28;3224;-65
2023/03/25 08:24:54;;;;;;;;;;;;;;;20.07;50.25;99772.69;4960163;28;2877;-65
2023/03/25 08:27:20;;;;;;;;;;;;;;;20.08;50.39;99777.03;4957235;28;2845;-65
2023/03/25 08:29:53;;;;;;;;;;;;;;;20.05;50.25;99776.22;4952214;28;3316;-63
2023/03/25 08:32:20;;;;;;;;;;;;;;;20.07;49.23;99775.56;4958372;28;3168;-62
2023/03/25 08:34:46;;;;;;;;;;;;;;;19.93;47.58;99777.97;4955394;28;3200;-62
2023/03/25 08:37:14;;;;;;;;;;;;;;;19.84;47.29;99771.28;4964222;28;2840;-63
2023/03/25 08:39:43;;;;;;;;;;;;;;;19.31;47.05;99775.25;4962059;28;3243;-62
2023/03/25 08:42:10;;;;;;;;;;;;;;;18.46;46.95;99765.84;4960223;28;3153;-62
2023/03/25 08:44:36;;;;;;;;;;;;;;;18.56;46.17;99769.09;4961733;28;3353;-62
2023/03/25 08:47:03;;;;;;;;;;;;;;;18.62;45.77;99768.56;4962027;28;3235;-61
2023/03/25 08:49:29;;;;;;;;;;;;;;;18.59;45.17;99769.91;4962874;28;3083;-62
2023/03/25 08:51:57;;;;;;;;;;;;;;;18.78;44.66;99768.44;4964023;28;2975;-62
2023/03/25 08:54:23;;;;;;;;;;;;;;;18.80;44.41;99772.13;4961411;28;3164;-61
2023/03/25 08:56:50;;;;;;;;;;;;;;;18.81;43.93;99767.88;4967697;28;1934;-61
2023/03/25 08:59:16;;;;;;;;;;;;;;;18.87;43.23;99758.00;4959075;28;3158;-61
2023/03/25 09:01:43;;;;;;;;;;;;;;;18.59;43.11;99769.91;4964912;28;2722;-61
2023/03/25 09:04:10;;;;;;;;;;;;;;;18.15;43.96;99770.44;4966096;28;2848;-61
2023/03/25 09:06:38;;;;;;;;;;;;;;;18.35;43.69;99761.88;4957653;28;3149;-61
2023/03/25 09:09:24;;;;;;;;;;;;;;;18.36;43.84;99768.34;4961986;28;3074;-62
2023/03/25 09:11:50;;;;;;;;;;;;;;;18.43;43.91;99770.03;4968382;28;1935;-63
2023/03/25 09:14:16;;;;;;;;;;;;;;;18.30;43.45;99768.88;4966477;28;2634;-63
2023/03/25 09:16:43;;;;;;;;;;;;;;;18.36;44.26;99777.69;4966472;28;2709;-62
2023/03/25 09:19:09;;;;;;;;;;;;;;;18.65;43.92;99783.75;4966146;28;3266;-63
2023/03/25 09:21:36;;;;;;;;;;;;;;;19.00;43.65;99782.84;4962157;28;3248;-63
2023/03/25 09:24:02;;;;;;;;;;;;;;;19.24;43.67;99780.81;4965207;28;2686;-63
2023/03/25 09:26:29;;;;;;;;;;;;;;;19.36;44.17;99771.16;4965752;28;3055;-64
2023/03/25 09:28:55;;;;;;;;;;;;;;;19.45;44.33;99784.38;4964793;28;3156;-62
2023/03/25 09:31:22;;;;;;;;;;;;;;;19.54;44.40;99782.47;4963350;28;2852;-63
2023/03/25 09:33:48;;;;;;;;;;;;;;;19.58;44.36;99774.72;4965079;28;3105;-64
2023/03/25 09:36:15;;;;;;;;;;;;;;;19.62;44.84;99769.13;4963813;28;3765;-63
2023/03/25 09:38:41;;;;;;;;;;;;;;;19.65;45.27;99779.28;4962597;28;3550;-64
2023/03/25 09:41:21;;;;;;;;;;;;;;;19.67;45.31;99779.31;4964700;28;2444;-63
2023/03/25 09:44:00;;;;;;;;;;;;;;;19.69;45.65;99772.22;4948523;28;3019;-63
2023/03/25 09:46:26;;;;;;;;;;;;;;;19.69;45.44;99772.22;4963136;28;3454;-61
2023/03/25 09:48:53;;;;;;;;;;;;;;;19.41;45.52;99767.00;4940168;28;3327;-62
2023/03/25 09:51:19;;;;;;;;;;;;;;;19.51;45.66;99775.94;4959740;28;3131;-63
2023/03/25 09:53:48;;;;;;;;;;;;;;;19.63;45.82;99781.34;4962251;28;3225;-62
2023/03/25 09:56:15;;;;;;;;;;;;;;;19.67;45.86;99779.31;4961218;28;3130;-62
2023/03/25 09:58:45;;;;;;;;;;;;;;;19.72;45.83;99793.84;4960633;28;2880;-61
2023/03/25 10:01:33;;;;;;;;;;;;;;;19.72;45.98;99783.09;4958375;28;2835;-62
2023/03/25 10:04:19;;;;;;;;;;;;;;;19.74;46.19;99779.56;4963740;28;2958;-61
2023/03/25 10:06:54;;;;;;;;;;;;;;;19.77;46.22;99783.94;4959930;28;3340;-62
2023/03/25 10:09:27;;;;;;;;;;;;;;;19.76;46.55;99774.59;4938726;28;3307;-62
2023/03/25 10:11:59;;;;;;;;;;;;;;;19.78;46.36;99768.19;4948314;28;3233;-61
2023/03/25 10:14:26;;;;;;;;;;;;;;;19.80;46.56;99776.88;4958215;28;2951;-62
2023/03/25 10:17:04;;;;;;;;;;;;;;;19.79;46.68;99781.91;4960134;28;2863;-62
2023/03/25 10:19:30;;;;;;;;;;;;;;;19.81;46.57;99772.59;4942910;28;3291;-61
2023/03/25 10:22:00;;;;;;;;;;;;;;;19.92;46.61;99777.25;4954875;28;2948;-59
2023/03/25 10:24:40;;;;;;;;;;;;;;;19.61;44.86;99779.16;4959343;28;3290;-59
2023/03/25 10:27:22;;;;;;;;;;;;;;;19.57;45.15;99773.28;4954415;28;3274;-60
2023/03/25 10:29:52;;;;;;;;;;;;;;;19.70;45.06;99768.69;4953285;28;3034;-59
2023/03/25 10:32:43;;;;;;;;;;;;;;;19.60;45.24;99771.91;4941991;28;2988;-60
2023/03/25 10:36:03;;;;;;;;;;;;;;;19.76;45.43;99765.25;4952817;28;3677;-61
2023/03/25 10:38:30;;;;;;;;;;;;;;;19.73;45.60;99766.59;4958093;28;3179;-60
2023/03/25 10:41:06;;;;;;;;;;;;;;;19.70;45.99;99762.19;4959615;28;3200;-60
2023/03/25 10:43:39;;;;;;;;;;;;;;;19.76;46.01;99756.66;4946828;28;3183;-61
2023/03/25 10:46:10;;;;;;;;;;;;;;;19.81;46.32;99756.13;4965330;28;2946;-60
2023/03/25 10:48:36;;;;;;;;;;;;;;;19.82;46.78;99760.44;4959297;28;3291;-60
2023/03/25 10:51:08;;;;;;;;;;;;;;;19.84;46.91;99757.63;4963480;28;2978;-60
2023/03/25 10:53:35;;;;;;;;;;;;;;;19.84;46.77;99762.66;4960439;28;3211;-60
2023/03/25 10:56:02;;;;;;;;;;;;;;;19.87;46.75;99746.94;4964362;28;2809;-60
2023/03/25 10:58:29;;;;;;;;;;;;;;;19.87;47.01;99746.94;4958986;28;3330;-60
2023/03/25 11:00:56;;;;;;;;;;;;;;;19.88;47.30;99751.25;4963540;28;1862;-60
2023/03/25 11:03:28;;;;;;;;;;;;;;;19.88;47.31;99742.66;4956684;28;3124;-60
2023/03/25 11:05:54;;;;;;;;;;;;;;;19.88;47.64;99748.38;4942026;28;3608;-61
2023/03/25 11:08:21;;;;;;;;;;;;;;;19.89;47.56;99749.88;4961247;28;2897;-61
2023/03/25 11:10:55;;;;;;;;;;;;;;;19.88;47.63;99742.66;4964625;28;2568;-60
2023/03/25 11:13:28;;;;;;;;;;;;;;;19.89;47.66;99749.88;4964730;28;2230;-60
2023/03/25 11:15:58;;;;;;;;;;;;;;;19.89;47.87;99741.25;4963218;28;2222;-60
2023/03/25 11:18:26;;;;;;;;;;;;;;;19.90;47.86;99747.72;4959820;28;3121;-61
2023/03/25 11:20:54;;;;;;;;;;;;;;;19.89;47.91;99738.38;4963229;28;3225;-60
2023/03/25 11:23:23;;;;;;;;;;;;;;;19.89;47.72;99749.88;4939925;28;3242;-60
2023/03/25 11:25:49;;;;;;;;;;;;;;;19.89;47.81;99752.75;4961504;28;3106;-60
2023/03/25 11:28:21;;;;;;;;;;;;;;;19.88;47.89;99737.66;4961127;28;3046;-61
2023/03/25 11:31:07;;;;;;;;;;;;;;;19.88;47.86;99734.78;4957007;28;3237;-61
2023/03/25 11:33:35;;;;;;;;;;;;;;;19.90;47.86;99736.97;4953015;28;3646;-61
2023/03/25 11:36:15;;;;;;;;;;;;;;;19.92;47.92;99731.28;4957449;28;3337;-61
2023/03/25 11:38:44;;;;;;;;;;;;;;;19.90;47.91;99734.09;4956235;28;3128;-61
2023/03/25 11:41:10;;;;;;;;;;;;;;;19.96;47.88;99734.28;4963603;28;2831;-61
2023/03/25 11:43:36;;;;;;;;;;;;;;;19.98;47.69;99730.75;4953093;28;2942;-61
2023/03/25 11:46:09;;;;;;;;;;;;;;;19.98;47.79;99722.13;4960931;28;3281;-61
2023/03/25 11:48:37;;;;;;;;;;;;;;;19.98;47.76;99728.59;4957115;28;2974;-61
2023/03/25 11:51:04;;;;;;;;;;;;;;;19.99;47.79;99704.19;4957855;28;3090;-61
2023/03/25 11:53:31;;;;;;;;;;;;;;;19.99;47.96;99706.34;4958649;28;2950;-61
2023/03/25 11:56:01;;;;;;;;;;;;;;;20.01;47.95;99712.88;4944894;28;3278;-62
2023/03/25 11:58:27;;;;;;;;;;;;;;;20.02;48.01;99688.50;4959441;28;3109;-61
2023/03/25 12:01:01;;;;;;;;;;;;;;;20.04;48.30;99714.44;4958222;28;2970;-61
2023/03/25 12:03:28;;;;;;;;;;;;;;;20.05;48.45;99692.88;4958180;28;3249;-67
2023/03/25 12:05:58;;;;;;;;;;;;;;;20.11;48.61;99697.34;4942178;28;3310;-63
2023/03/25 12:08:27;;;;;;;;;;;;;;;20.12;48.68;99701.69;4961287;28;3330;-63
2023/03/25 12:10:55;;;;;;;;;;;;;;;20.13;48.72;99694.53;4962172;28;3389;-62
2023/03/25 12:13:27;;;;;;;;;;;;;;;20.13;48.68;99714.66;4961865;28;3162;-63
2023/03/25 12:16:00;;;;;;;;;;;;;;;20.14;48.68;99693.13;4942794;28;3177;-63
2023/03/25 12:18:32;;;;;;;;;;;;;;;20.14;48.66;99690.25;4961766;28;3026;-62
2023/03/25 12:21:11;;;;;;;;;;;;;;;20.11;48.84;99685.84;4958912;28;3151;-68
2023/03/25 12:24:02;;;;;;;;;;;;;;;20.15;49.01;99683.09;4960019;28;3087;-64
2023/03/25 12:26:35;;;;;;;;;;;;;;;20.21;48.92;99686.88;4942971;28;3624;-61
2023/03/25 12:29:21;;;;;;;;;;;;;;;20.22;49.55;99694.06;4944021;28;3256;-63
2023/03/25 12:31:57;;;;;;;;;;;;;;;20.19;50.55;99678.19;4960966;28;3045;-61
2023/03/25 12:34:24;;;;;;;;;;;;;;;20.24;50.20;99684.78;4944219;28;2935;-60
2023/03/25 12:37:09;;;;;;;;;;;;;;;20.24;50.42;99673.28;4962309;28;2905;-61
2023/03/25 12:39:41;;;;;;;;;;;;;;;20.20;51.19;99679.69;4960601;28;2933;-61
2023/03/25 12:42:28;;;;;;;;;;;;;;;20.23;50.71;99680.47;4955293;28;3136;-59
2023/03/25 12:44:54;;;;;;;;;;;;;;;20.22;50.52;99676.09;4961156;28;3189;-59
2023/03/25 12:47:22;;;;;;;;;;;;;;;20.20;51.54;99668.19;4959932;28;3023;-60
2023/03/25 12:49:49;;;;;;;;;;;;;;;20.24;50.69;99665.41;4964702;28;3013;-61
2023/03/25 12:52:18;;;;;;;;;;;;;;;20.21;50.63;99677.53;4964091;28;3164;-60
2023/03/25 12:54:57;;;;;;;;;;;;;;;20.20;51.29;99684.66;4942984;28;2971;-62
2023/03/25 12:57:27;;;;;;;;;;;;;;;20.21;50.72;99703.41;4954646;28;3236;-59
2023/03/25 13:00:06;;;;;;;;;;;;;;;20.27;50.58;99730.19;4962012;28;2889;-60
2023/03/25 13:02:39;;;;;;;;;;;;;;;20.25;50.69;99703.50;4948449;28;3550;-60
2023/03/25 13:05:15;;;;;;;;;;;;;;;20.26;50.67;99685.56;4953548;28;2981;-60
2023/03/25 13:07:43;;;;;;;;;;;;;;;20.28;50.88;99694.25;4965580;28;2088;-59
2023/03/25 13:10:19;;;;;;;;;;;;;;;20.28;50.95;99697.13;4965451;28;1836;-60
2023/03/25 13:12:52;;;;;;;;;;;;;;;20.29;50.88;99692.09;4964296;28;3442;-60
2023/03/25 13:15:20;;;;;;;;;;;;;;;20.28;50.73;99710.78;4963107;28;3605;-60
2023/03/25 13:17:56;;;;;;;;;;;;;;;20.29;50.66;99709.34;4966227;28;3093;-60
2023/03/25 13:20:23;;;;;;;;;;;;;;;20.28;50.58;99696.41;4964847;28;1690;-59
2023/03/25 13:22:51;;;;;;;;;;;;;;;20.29;50.61;99695.75;4961251;28;3105;-60
2023/03/25 13:25:23;;;;;;;;;;;;;;;20.29;50.55;99686.38;4965086;28;1722;-59